createdAt,value
2023-04-02T00:00:22.261Z,72.65
2023-04-02T00:03:24.686Z,72.51
2023-04-02T00:06:44.740Z,72.50
2023-04-02T00:09:47.335Z,73.45
2023-04-02T00:13:05.805Z,72.62
2023-04-02T00:16:13.186Z,73.33
2023-04-02T00:19:23.329Z,73.65
2023-04-02T00:22:29.498Z,73.62
2023-04-02T00:25:43.230Z,73.97
2023-04-02T00:28:45.465Z,74.30
2023-04-02T00:31:50.607Z,74.75
2023-04-02T00:34:54.378Z,74.35
2023-04-02T00:37:56.969Z,74.11
2023-04-02T00:41:03.027Z,73.51
2023-04-02T00:44:06.124Z,73.18
2023-04-02T00:47:17.189Z,72.51
2023-04-02T00:50:39.144Z,72.57
2023-04-02T00:53:44.598Z,72.78
2023-04-02T00:56:50.756Z,72.55
2023-04-02T00:59:55.682Z,72.75
2023-04-02T01:03:16.591Z,72.81
2023-04-02T01:06:20.593Z,72.37
2023-04-02T01:09:53.401Z,72.43
2023-04-02T01:13:08.911Z,72.44
2023-04-02T01:16:20.643Z,72.20
2023-04-02T01:19:32.185Z,71.76
2023-04-02T01:22:48.150Z,71.33
2023-04-02T01:25:53.366Z,71.06
2023-04-02T01:29:03.071Z,71.57
2023-04-02T01:32:15.616Z,71.59
2023-04-02T01:35:18.133Z,71.39
2023-04-02T01:38:29.287Z,71.62
2023-04-02T01:41:49.305Z,71.83
2023-04-02T01:44:54.212Z,72.06
2023-04-02T01:47:56.840Z,71.83
2023-04-02T01:51:01.002Z,71.53
2023-04-02T01:54:06.233Z,72.00
2023-04-02T01:57:09.299Z,72.55
2023-04-02T02:00:15.053Z,72.31
2023-04-02T02:03:20.766Z,72.11
2023-04-02T02:06:24.003Z,71.67
2023-04-02T02:09:31.022Z,72.34
2023-04-02T02:12:33.315Z,72.25
2023-04-02T02:15:39.076Z,72.71
2023-04-02T02:18:41.915Z,72.89
2023-04-02T02:21:56.931Z,72.80
2023-04-02T02:25:03.043Z,73.11
2023-04-02T02:28:23.692Z,73.59
2023-04-02T02:31:31.054Z,73.36
2023-04-02T02:34:39.723Z,73.61
2023-04-02T02:37:46.995Z,73.71
2023-04-02T02:40:56.652Z,73.81
2023-04-02T02:44:14.588Z,73.30
2023-04-02T02:47:22.481Z,73.49
2023-04-02T02:50:31.339Z,73.57
2023-04-02T02:53:46.867Z,74.06
2023-04-02T02:57:04.136Z,74.07
2023-04-02T03:00:09.768Z,74.36
2023-04-02T03:03:22.197Z,75.03
2023-04-02T03:06:28.787Z,74.61
2023-04-02T03:09:41.974Z,75.00
2023-04-02T03:13:08.520Z,75.49
2023-04-02T03:16:31.319Z,75.62
2023-04-02T03:19:51.342Z,76.10
2023-04-02T03:23:08.992Z,76.05
2023-04-02T03:26:19.202Z,75.95
2023-04-02T03:29:27.204Z,76.14
2023-04-02T03:32:38.763Z,76.22
2023-04-02T03:35:48.244Z,76.54
2023-04-02T03:38:57.041Z,77.00
2023-04-02T03:42:04.958Z,77.76
2023-04-02T03:45:21.380Z,77.48
2023-04-02T03:48:39.553Z,77.24
2023-04-02T03:52:10.591Z,77.85
2023-04-02T03:55:24.305Z,77.89
2023-04-02T03:58:51.771Z,77.96
2023-04-02T04:02:01.904Z,78.27
2023-04-02T04:05:06.915Z,78.60
2023-04-02T04:08:27.122Z,78.08
2023-04-02T04:11:35.761Z,78.37
2023-04-02T04:14:45.976Z,78.78
2023-04-02T04:17:57.840Z,78.42
2023-04-02T04:21:30.981Z,77.70
2023-04-02T04:24:45.604Z,77.83
2023-04-02T04:28:08.276Z,77.22
2023-04-02T04:31:34.038Z,77.95
2023-04-02T04:34:47.018Z,77.33
2023-04-02T04:38:03.881Z,77.75
2023-04-02T04:41:17.432Z,78.30
2023-04-02T04:44:25.385Z,78.01
2023-04-02T04:47:42.625Z,78.07
2023-04-02T04:50:50.690Z,78.16
2023-04-02T04:53:55.271Z,77.56
2023-04-02T04:57:04.054Z,77.62
2023-04-02T05:00:18.614Z,77.10
2023-04-02T05:03:55.590Z,76.22
2023-04-02T05:07:14.315Z,75.24
2023-04-02T05:10:26.550Z,74.54
2023-04-02T05:14:01.557Z,73.30
2023-04-02T05:17:04.472Z,72.28
2023-04-02T05:20:16.470Z,70.75
2023-04-02T05:23:48.274Z,69.74
2023-04-02T05:26:53.398Z,67.30
2023-04-02T05:30:23.206Z,67.10
2023-04-02T05:33:32.334Z,66.27
2023-04-02T05:36:38.552Z,65.47
2023-04-02T05:39:50.285Z,64.13
2023-04-02T05:42:55.716Z,62.86
2023-04-02T05:46:03.774Z,62.18
2023-04-02T05:49:14.095Z,60.25
2023-04-02T05:52:23.589Z,58.96
2023-04-02T05:55:43.256Z,57.69
2023-04-02T05:59:11.900Z,56.14
2023-04-02T06:02:39.670Z,57.05
2023-04-02T06:05:46.152Z,55.86
2023-04-02T06:08:57.775Z,55.88
2023-04-02T06:12:24.812Z,55.02
2023-04-02T06:15:30.044Z,55.96
2023-04-02T06:18:37.448Z,56.69
2023-04-02T06:21:45.783Z,55.68
2023-04-02T06:24:56.304Z,54.12
2023-04-02T06:28:01.726Z,53.46
2023-04-02T06:31:10.937Z,53.36
2023-04-02T06:34:22.463Z,51.59
2023-04-02T06:37:35.839Z,50.80
2023-04-02T06:40:58.931Z,50.13
2023-04-02T06:44:18.655Z,49.17
2023-04-02T06:47:38.672Z,47.36
2023-04-02T06:50:49.165Z,46.19
2023-04-02T06:54:16.139Z,45.72
2023-04-02T06:57:20.731Z,44.10
2023-04-02T07:00:33.898Z,43.96
2023-04-02T07:03:36.910Z,45.67
2023-04-02T07:06:51.266Z,47.76
2023-04-02T07:09:54.330Z,49.45
2023-04-02T07:12:56.647Z,50.26
2023-04-02T07:15:59.914Z,50.46
2023-04-02T07:19:04.177Z,48.63
2023-04-02T07:22:09.405Z,50.57
2023-04-02T07:25:15.988Z,50.97
2023-04-02T07:28:19.194Z,50.47
2023-04-02T07:31:25.951Z,50.35
2023-04-02T07:34:28.376Z,51.08
2023-04-02T07:37:31.396Z,51.73
2023-04-02T07:40:33.726Z,48.12
2023-04-02T07:43:36.243Z,46.37
2023-04-02T07:46:38.547Z,47.33
2023-04-02T07:49:40.952Z,48.86
2023-04-02T07:52:43.985Z,47.15
2023-04-02T07:55:46.255Z,47.72
2023-04-02T07:58:49.071Z,50.05
2023-04-02T08:01:55.183Z,51.22
2023-04-02T08:04:57.426Z,51.26
2023-04-02T08:07:59.705Z,52.17
2023-04-02T08:11:01.970Z,51.47
2023-04-02T08:14:04.511Z,52.20
2023-04-02T08:17:06.786Z,51.37
2023-04-02T08:20:16.292Z,52.30
2023-04-02T08:23:18.588Z,53.13
2023-04-02T08:26:21.129Z,52.85
2023-04-02T08:29:23.548Z,51.63
2023-04-02T08:32:29.021Z,51.51
2023-04-02T08:35:31.398Z,50.87
2023-04-02T08:38:33.762Z,49.23
2023-04-02T08:42:06.587Z,47.62
2023-04-02T08:45:25.410Z,43.61
2023-04-02T08:48:44.236Z,41.71
2023-04-02T08:51:47.482Z,39.49
2023-04-02T08:54:50.491Z,39.91
2023-04-02T08:58:07.468Z,42.08
2023-04-02T09:01:31.688Z,44.10
2023-04-02T09:04:34.657Z,48.03
2023-04-02T09:07:37.039Z,47.67
2023-04-02T09:10:45.573Z,48.18
2023-04-02T09:13:55.529Z,48.84
2023-04-02T09:17:03.950Z,48.98
2023-04-02T09:20:26.516Z,49.02
2023-04-02T09:23:29.242Z,49.48
2023-04-02T09:26:34.090Z,50.08
2023-04-02T09:29:43.421Z,50.34
2023-04-02T09:32:53.427Z,50.32
2023-04-02T09:35:57.898Z,51.72
2023-04-02T09:39:06.878Z,51.84
2023-04-02T09:42:35.149Z,52.07
2023-04-02T09:45:38.046Z,51.62
2023-04-02T09:48:58.484Z,50.82
2023-04-02T09:52:29.672Z,51.05
2023-04-02T09:55:32.229Z,50.30
2023-04-02T09:58:34.503Z,49.95
2023-04-02T10:01:39.650Z,50.29
2023-04-02T10:04:48.267Z,51.47
2023-04-02T10:07:53.334Z,52.60
2023-04-02T10:10:59.602Z,52.88
2023-04-02T10:14:38.086Z,52.35
2023-04-02T10:17:41.016Z,51.59
2023-04-02T10:20:51.276Z,51.26
2023-04-02T10:23:55.559Z,51.27
2023-04-02T10:27:22.740Z,49.94
2023-04-02T10:30:32.050Z,49.54
2023-04-02T10:33:37.650Z,49.98
2023-04-02T10:36:57.886Z,49.68
2023-04-02T10:40:10.733Z,50.34
2023-04-02T10:43:30.962Z,49.17
2023-04-02T10:46:36.134Z,50.04
2023-04-02T10:49:44.072Z,48.60
2023-04-02T10:52:53.047Z,45.82
2023-04-02T10:56:03.458Z,46.05
2023-04-02T10:59:15.706Z,46.13
2023-04-02T11:02:36.149Z,46.69
2023-04-02T11:05:50.940Z,46.83
2023-04-02T11:09:01.272Z,48.24
2023-04-02T11:12:06.373Z,47.15
2023-04-02T11:15:19.198Z,46.52
2023-04-02T11:18:29.782Z,46.09
2023-04-02T11:21:55.032Z,45.79
2023-04-02T11:25:01.443Z,45.88
2023-04-02T11:28:20.870Z,45.41
2023-04-02T11:31:23.309Z,45.28
2023-04-02T11:34:43.963Z,45.16
2023-04-02T11:37:46.519Z,44.74
2023-04-02T11:40:53.073Z,44.88
2023-04-02T11:44:01.420Z,44.47
2023-04-02T11:47:25.183Z,44.70
2023-04-02T11:50:31.996Z,45.60
2023-04-02T11:53:35.015Z,46.16
2023-04-02T11:56:53.056Z,46.05
2023-04-02T12:00:11.190Z,45.06
2023-04-02T12:03:36.109Z,44.35
2023-04-02T12:06:39.936Z,44.16
2023-04-02T12:09:49.758Z,44.05
2023-04-02T12:12:52.144Z,42.91
2023-04-02T12:15:59.582Z,42.06
2023-04-02T12:19:07.994Z,42.95
2023-04-02T12:22:20.053Z,43.54
2023-04-02T12:25:46.566Z,43.48
2023-04-02T12:28:48.788Z,43.71
2023-04-02T12:31:51.257Z,43.29
2023-04-02T12:34:55.818Z,43.45
2023-04-02T12:37:58.181Z,43.92
2023-04-02T12:41:16.189Z,44.52
2023-04-02T12:44:21.985Z,44.77
2023-04-02T12:47:25.102Z,44.22
2023-04-02T12:50:27.445Z,44.61
2023-04-02T12:53:36.689Z,43.23
2023-04-02T12:56:39.020Z,43.41
2023-04-02T12:59:42.918Z,43.66
2023-04-02T13:02:47.386Z,43.28
2023-04-02T13:05:52.824Z,44.21
2023-04-02T13:08:55.571Z,45.72
2023-04-02T13:11:58.432Z,45.73
2023-04-02T13:15:03.879Z,46.84
2023-04-02T13:18:20.774Z,46.88
2023-04-02T13:21:28.429Z,46.54
2023-04-02T13:24:33.188Z,45.42
2023-04-02T13:27:35.798Z,44.86
2023-04-02T13:30:38.219Z,43.53
2023-04-02T13:33:40.554Z,42.91
2023-04-02T13:36:42.876Z,44.49
2023-04-02T13:39:45.114Z,44.85
2023-04-02T13:42:49.899Z,43.89
2023-04-02T13:45:54.436Z,44.45
2023-04-02T13:48:57.694Z,43.92
2023-04-02T13:52:04.371Z,44.07
2023-04-02T13:55:06.965Z,43.64
2023-04-02T13:58:10.737Z,44.36
2023-04-02T14:01:14.414Z,44.22
2023-04-02T14:04:30.073Z,44.39
2023-04-02T14:08:06.654Z,43.52
2023-04-02T14:11:18.082Z,43.29
2023-04-02T14:14:55.646Z,44.12
2023-04-02T14:18:07.147Z,43.52
2023-04-02T14:21:26.686Z,42.87
2023-04-02T14:24:37.638Z,42.19
2023-04-02T14:27:40.399Z,41.87
2023-04-02T14:30:57.115Z,42.78
2023-04-02T14:34:21.072Z,45.18
2023-04-02T14:37:36.936Z,47.51
2023-04-02T14:40:46.307Z,48.95
2023-04-02T14:43:55.690Z,47.16
2023-04-02T14:47:19.108Z,48.17
2023-04-02T14:50:39.132Z,49.38
2023-04-02T14:53:58.798Z,50.75
2023-04-02T14:57:17.000Z,53.71
2023-04-02T15:00:31.801Z,54.57
2023-04-02T15:03:43.398Z,56.58
2023-04-02T15:06:52.515Z,56.54
2023-04-02T15:10:19.631Z,60.25
2023-04-02T15:13:30.648Z,65.92
2023-04-02T15:16:36.538Z,69.32
2023-04-02T15:19:39.711Z,72.66
2023-04-02T15:23:07.295Z,76.79
2023-04-02T15:26:21.734Z,78.41
2023-04-02T15:30:01.944Z,78.97
2023-04-02T15:33:44.278Z,77.73
2023-04-02T15:37:05.040Z,76.44
2023-04-02T15:40:16.056Z,76.43
2023-04-02T15:43:24.696Z,74.11
2023-04-02T15:46:51.295Z,74.86
2023-04-02T15:50:21.982Z,75.82
2023-04-02T15:53:48.223Z,73.43
2023-04-02T15:57:11.307Z,72.89
2023-04-02T16:00:27.820Z,73.38
2023-04-02T16:03:44.079Z,71.71
2023-04-02T16:07:34.194Z,71.05
2023-04-02T16:10:42.586Z,70.76
2023-04-02T16:13:45.685Z,69.58
2023-04-02T16:16:50.493Z,68.42
2023-04-02T16:20:17.565Z,68.70
2023-04-02T16:23:32.299Z,69.26
2023-04-02T16:27:04.936Z,69.45
2023-04-02T16:30:28.919Z,65.97
2023-04-02T16:33:46.403Z,65.38
2023-04-02T16:36:54.817Z,68.57
2023-04-02T16:40:24.481Z,70.36
2023-04-02T16:43:45.670Z,69.36
2023-04-02T16:47:12.574Z,69.49
2023-04-02T16:50:44.745Z,70.19
2023-04-02T16:54:36.729Z,69.50
2023-04-02T16:58:17.797Z,71.11
2023-04-02T17:01:20.042Z,71.57
2023-04-02T17:04:46.560Z,71.89
2023-04-02T17:08:04.932Z,70.27
2023-04-02T17:11:10.898Z,69.76
2023-04-02T17:15:07.381Z,69.71
2023-04-02T17:18:20.055Z,69.94
2023-04-02T17:21:27.375Z,66.38
2023-04-02T17:24:35.936Z,62.49
2023-04-02T17:27:43.620Z,62.98
2023-04-02T17:30:49.545Z,60.01
2023-04-02T17:33:51.820Z,59.36
2023-04-02T17:36:54.023Z,59.98
2023-04-02T17:40:15.076Z,58.83
2023-04-02T17:43:28.983Z,63.26
2023-04-02T17:46:52.800Z,64.00
2023-04-02T17:50:03.874Z,62.55
2023-04-02T17:53:20.628Z,63.23
2023-04-02T17:57:06.389Z,62.77
2023-04-02T18:00:45.738Z,63.50
2023-04-02T18:04:29.897Z,62.44
2023-04-02T18:07:50.229Z,62.67
2023-04-02T18:11:10.848Z,62.83
2023-04-02T18:14:31.973Z,61.56
2023-04-02T18:17:39.826Z,61.77
2023-04-02T18:21:06.476Z,62.29
2023-04-02T18:24:21.284Z,62.66
2023-04-02T18:27:44.621Z,61.81
2023-04-02T18:31:40.740Z,62.14
2023-04-02T18:34:51.859Z,62.85
2023-04-02T18:38:00.926Z,63.54
2023-04-02T18:41:21.863Z,63.88
2023-04-02T18:44:31.537Z,63.35
2023-04-02T18:48:06.951Z,64.17
2023-04-02T18:51:17.526Z,64.19
2023-04-02T18:54:29.820Z,63.78
2023-04-02T18:57:36.086Z,63.90
2023-04-02T19:00:45.021Z,63.18
2023-04-02T19:03:56.833Z,63.40
2023-04-02T19:07:13.017Z,63.06
2023-04-02T19:10:31.084Z,64.08
2023-04-02T19:13:33.348Z,64.31
2023-04-02T19:16:43.660Z,64.10
2023-04-02T19:20:22.924Z,64.68
2023-04-02T19:23:56.123Z,64.34
2023-04-02T19:27:32.797Z,64.26
2023-04-02T19:31:12.940Z,64.30
2023-04-02T19:34:33.967Z,63.82
2023-04-02T19:37:51.588Z,63.72
2023-04-02T19:40:59.853Z,63.63
2023-04-02T19:44:02.255Z,64.53
2023-04-02T19:47:05.190Z,64.01
2023-04-02T19:50:08.245Z,63.88
2023-04-02T19:53:11.153Z,64.03
2023-04-02T19:56:13.508Z,63.47
2023-04-02T19:59:18.408Z,63.82
2023-04-02T20:02:21.420Z,63.86
2023-04-02T20:05:23.678Z,63.36
2023-04-02T20:08:26.978Z,63.19
2023-04-02T20:11:29.715Z,63.71
2023-04-02T20:14:32.422Z,63.80
2023-04-02T20:17:34.756Z,63.90
2023-04-02T20:20:38.050Z,63.74
2023-04-02T20:23:41.181Z,63.39
2023-04-02T20:26:43.469Z,63.42
2023-04-02T20:29:46.193Z,63.24
2023-04-02T20:32:48.687Z,62.93
2023-04-02T20:35:52.397Z,63.07
2023-04-02T20:38:54.922Z,62.46
2023-04-02T20:42:01.214Z,62.44
2023-04-02T20:45:05.237Z,63.05
2023-04-02T20:48:07.550Z,63.08
2023-04-02T20:51:13.041Z,62.73
2023-04-02T20:54:15.486Z,62.87
2023-04-02T20:57:19.711Z,62.98
2023-04-02T21:00:22.624Z,64.73
2023-04-02T21:03:24.857Z,66.44
2023-04-02T21:06:33.265Z,65.59
2023-04-02T21:09:35.771Z,66.71
2023-04-02T21:12:37.969Z,64.57
2023-04-02T21:15:43.308Z,64.82
2023-04-02T21:18:46.977Z,64.60
2023-04-02T21:21:49.266Z,65.62
2023-04-02T21:24:51.534Z,64.24
2023-04-02T21:27:53.842Z,65.36
2023-04-02T21:31:06.312Z,64.69
2023-04-02T21:34:12.347Z,64.64
2023-04-02T21:37:14.627Z,64.07
2023-04-02T21:40:16.960Z,64.41
2023-04-02T21:43:19.490Z,64.16
2023-04-02T21:46:24.709Z,65.34
2023-04-02T21:49:28.007Z,64.86
2023-04-02T21:52:30.298Z,65.22
2023-04-02T21:55:32.489Z,64.11
2023-04-02T21:58:35.034Z,64.99
2023-04-02T22:01:40.207Z,64.70
2023-04-02T22:04:42.564Z,64.68
2023-04-02T22:07:44.810Z,65.03
2023-04-02T22:10:47.054Z,65.37
2023-04-02T22:13:49.884Z,64.75
2023-04-02T22:16:52.378Z,64.76
2023-04-02T22:19:54.729Z,64.26
2023-04-02T22:22:56.989Z,63.86
2023-04-02T22:26:00.892Z,63.45
2023-04-02T22:29:04.506Z,63.69
2023-04-02T22:32:06.727Z,63.38
2023-04-02T22:35:09.284Z,62.70
2023-04-02T22:38:11.593Z,63.23
2023-04-02T22:41:16.279Z,62.97
2023-04-02T22:44:18.526Z,63.47
2023-04-02T22:47:21.066Z,62.54
2023-04-02T22:50:23.463Z,63.15
2023-04-02T22:53:26.410Z,62.55
2023-04-02T22:56:32.134Z,63.21
2023-04-02T22:59:34.828Z,63.16
2023-04-02T23:02:39.996Z,62.84
2023-04-02T23:05:42.685Z,62.96
2023-04-02T23:08:45.819Z,63.13
2023-04-02T23:11:48.093Z,64.03
2023-04-02T23:14:50.406Z,63.58
2023-04-02T23:17:52.775Z,63.22
2023-04-02T23:20:55.685Z,63.74
2023-04-02T23:24:01.270Z,63.45
2023-04-02T23:27:03.656Z,63.39
2023-04-02T23:30:08.809Z,63.35
2023-04-02T23:33:11.059Z,62.93
2023-04-02T23:36:26.900Z,63.85
2023-04-02T23:39:29.690Z,63.24
2023-04-02T23:42:31.874Z,63.39
2023-04-02T23:45:34.119Z,62.92
2023-04-02T23:48:36.364Z,62.63
2023-04-02T23:51:38.788Z,63.47
2023-04-02T23:54:41.128Z,62.74
2023-04-02T23:57:43.425Z,63.73
